createdAt,value
2022-07-26T00:02:35.036Z,19.20
2022-07-26T00:05:22.959Z,19.30
2022-07-26T00:08:12.647Z,19.20
2022-07-26T00:11:00.597Z,19.20
2022-07-26T00:13:55.933Z,19.30
2022-07-26T00:16:44.751Z,19.20
2022-07-26T00:19:33.068Z,19.20
2022-07-26T00:22:36.558Z,19.20
2022-07-26T00:25:25.778Z,19.20
2022-07-26T00:28:13.943Z,19.10
2022-07-26T00:31:01.862Z,19.10
2022-07-26T00:33:49.872Z,19.00
2022-07-26T00:36:41.851Z,19.00
2022-07-26T00:39:30.254Z,19.00
2022-07-26T00:42:20.185Z,18.90
2022-07-26T00:45:10.236Z,18.90
2022-07-26T00:47:58.376Z,18.90
2022-07-26T00:50:47.408Z,18.80
2022-07-26T00:53:35.729Z,18.80
2022-07-26T00:56:24.070Z,18.80
2022-07-26T00:59:13.571Z,18.80
2022-07-26T01:02:01.929Z,18.80
2022-07-26T01:04:52.585Z,18.80
2022-07-26T01:07:41.352Z,18.70
2022-07-26T01:10:29.388Z,18.60
2022-07-26T01:13:21.105Z,18.60
2022-07-26T01:16:10.342Z,18.50
2022-07-26T01:18:58.039Z,18.50
2022-07-26T01:21:47.507Z,18.40
2022-07-26T01:24:35.584Z,18.40
2022-07-26T01:27:23.535Z,18.40
2022-07-26T01:30:13.156Z,18.40
2022-07-26T01:33:00.997Z,18.40
2022-07-26T01:35:53.836Z,18.40
2022-07-26T01:38:43.537Z,18.40
2022-07-26T01:41:37.980Z,18.40
2022-07-26T01:44:26.190Z,18.40
2022-07-26T01:47:13.825Z,18.50
2022-07-26T01:50:01.542Z,18.40
2022-07-26T01:52:49.077Z,18.50
2022-07-26T01:55:38.601Z,18.50
2022-07-26T01:58:26.388Z,18.50
2022-07-26T02:01:14.455Z,18.40
2022-07-26T02:04:02.126Z,18.50
2022-07-26T02:06:50.037Z,18.50
2022-07-26T02:09:39.961Z,18.50
2022-07-26T02:12:29.686Z,18.50
2022-07-26T02:15:18.206Z,18.60
2022-07-26T02:18:06.284Z,18.60
2022-07-26T02:20:53.787Z,18.60
2022-07-26T02:23:42.173Z,18.60
2022-07-26T02:26:30.052Z,18.60
2022-07-26T02:29:19.309Z,18.60
2022-07-26T02:32:07.912Z,18.60
2022-07-26T02:34:55.797Z,18.70
2022-07-26T02:37:44.149Z,18.70
2022-07-26T02:40:32.423Z,18.70
2022-07-26T02:43:20.176Z,18.80
2022-07-26T02:46:09.625Z,18.80
2022-07-26T02:48:57.515Z,18.80
2022-07-26T02:51:45.739Z,18.70
2022-07-26T02:54:33.923Z,18.70
2022-07-26T02:57:21.738Z,18.70
2022-07-26T03:00:11.761Z,18.70
2022-07-26T03:03:01.778Z,18.60
2022-07-26T03:05:50.087Z,18.60
2022-07-26T03:08:38.028Z,18.50
2022-07-26T03:11:25.703Z,18.50
2022-07-26T03:14:13.748Z,18.40
2022-07-26T03:17:01.656Z,18.40
2022-07-26T03:19:50.788Z,18.40
2022-07-26T03:22:38.751Z,18.50
2022-07-26T03:25:26.982Z,18.60
2022-07-26T03:28:19.372Z,18.60
2022-07-26T03:31:08.086Z,18.70
2022-07-26T03:34:01.302Z,18.70
2022-07-26T03:36:52.195Z,18.70
2022-07-26T03:39:40.741Z,18.70
2022-07-26T03:42:28.433Z,18.70
2022-07-26T03:45:17.904Z,18.70
2022-07-26T03:48:06.290Z,18.70
2022-07-26T03:50:54.173Z,18.70
2022-07-26T03:53:43.121Z,18.70
2022-07-26T03:56:31.735Z,18.80
2022-07-26T03:59:19.878Z,18.80
2022-07-26T04:02:07.840Z,18.90
2022-07-26T04:04:55.965Z,19.10
2022-07-26T04:07:52.840Z,19.30
2022-07-26T04:10:46.973Z,19.50
2022-07-26T04:13:35.513Z,19.80
2022-07-26T04:16:24.000Z,19.90
2022-07-26T04:19:11.797Z,20.10
2022-07-26T04:21:59.962Z,20.30
2022-07-26T04:24:47.644Z,20.40
2022-07-26T04:27:37.721Z,20.50
2022-07-26T04:30:25.585Z,20.50
2022-07-26T04:33:13.724Z,20.60
2022-07-26T04:36:02.396Z,20.60
2022-07-26T04:38:50.262Z,20.60
2022-07-26T04:41:38.052Z,20.70
2022-07-26T04:44:27.126Z,20.70
2022-07-26T04:47:15.002Z,20.70
2022-07-26T04:50:02.757Z,20.70
2022-07-26T04:52:52.024Z,20.70
2022-07-26T04:55:39.662Z,20.80
2022-07-26T04:58:27.215Z,20.80
2022-07-26T05:01:16.591Z,20.80
2022-07-26T05:04:04.843Z,20.80
2022-07-26T05:06:53.725Z,20.80
2022-07-26T05:09:41.641Z,20.80
2022-07-26T05:12:29.310Z,20.90
2022-07-26T05:15:17.417Z,21.00
2022-07-26T05:18:10.674Z,21.00
2022-07-26T05:21:02.084Z,21.00
2022-07-26T05:23:50.227Z,21.10
2022-07-26T05:26:37.824Z,21.20
2022-07-26T05:29:25.586Z,21.30
2022-07-26T05:32:13.419Z,21.40
2022-07-26T05:35:02.644Z,21.50
2022-07-26T05:37:50.429Z,21.70
2022-07-26T05:40:38.243Z,21.70
2022-07-26T05:43:27.694Z,21.60
2022-07-26T05:46:29.300Z,21.70
2022-07-26T05:49:17.438Z,21.70
2022-07-26T05:52:07.038Z,21.80
2022-07-26T05:54:54.711Z,21.70
2022-07-26T05:57:42.586Z,21.70
2022-07-26T06:00:30.501Z,21.60
2022-07-26T06:03:24.238Z,21.50
2022-07-26T06:06:12.476Z,21.50
2022-07-26T06:09:02.425Z,21.50
2022-07-26T06:11:50.522Z,21.60
2022-07-26T06:14:38.370Z,21.60
2022-07-26T06:17:30.133Z,21.60
2022-07-26T06:20:18.270Z,21.70
2022-07-26T06:23:05.944Z,21.60
2022-07-26T06:25:55.173Z,21.50
2022-07-26T06:28:44.199Z,21.40
2022-07-26T06:31:32.298Z,21.30
2022-07-26T06:34:20.033Z,21.30
2022-07-26T06:37:07.808Z,21.30
2022-07-26T06:39:55.535Z,21.30
2022-07-26T06:42:44.912Z,21.40
2022-07-26T06:45:33.237Z,21.50
2022-07-26T06:48:21.205Z,21.50
2022-07-26T06:51:10.399Z,21.50
2022-07-26T06:53:58.433Z,21.50
2022-07-26T06:56:49.123Z,21.60
2022-07-26T06:59:38.761Z,21.70
2022-07-26T07:02:26.535Z,21.80
2022-07-26T07:05:14.372Z,21.80
2022-07-26T07:08:02.425Z,21.80
2022-07-26T07:10:50.806Z,21.70
2022-07-26T07:13:39.042Z,21.60
2022-07-26T07:16:28.452Z,21.70
2022-07-26T07:19:16.312Z,21.70
2022-07-26T07:22:04.142Z,21.70
2022-07-26T07:24:51.898Z,21.80
2022-07-26T07:27:39.875Z,21.90
2022-07-26T07:30:28.115Z,22.00
2022-07-26T07:33:22.799Z,22.20
2022-07-26T07:36:11.192Z,22.20
2022-07-26T07:39:01.925Z,22.20
2022-07-26T07:41:54.126Z,22.30
2022-07-26T07:44:42.606Z,22.50
2022-07-26T07:47:30.331Z,22.60
2022-07-26T07:50:19.902Z,22.80
2022-07-26T07:53:08.529Z,22.80
2022-07-26T07:55:56.619Z,22.80
2022-07-26T07:58:44.695Z,22.90
2022-07-26T08:01:39.674Z,23.00
2022-07-26T08:04:28.657Z,23.20
2022-07-26T08:07:17.772Z,23.10
2022-07-26T08:10:07.114Z,23.20
2022-07-26T08:12:54.863Z,23.40
2022-07-26T08:15:42.881Z,23.50
2022-07-26T08:18:30.583Z,23.70
2022-07-26T08:21:19.047Z,23.40
2022-07-26T08:24:10.994Z,23.40
2022-07-26T08:26:58.869Z,23.60
2022-07-26T08:29:46.900Z,23.80
2022-07-26T08:32:34.929Z,23.90
2022-07-26T08:35:22.596Z,23.90
2022-07-26T08:38:10.709Z,23.90
2022-07-26T08:41:00.968Z,24.00
2022-07-26T08:43:53.080Z,24.20
2022-07-26T08:46:43.600Z,24.30
2022-07-26T08:49:31.664Z,24.10
2022-07-26T08:52:19.409Z,24.10
2022-07-26T08:55:09.321Z,24.00
2022-07-26T08:57:58.622Z,24.00
2022-07-26T09:00:46.836Z,24.10
2022-07-26T09:03:38.006Z,23.70
2022-07-26T09:06:28.457Z,23.30
2022-07-26T09:09:16.237Z,23.40
2022-07-26T09:12:16.580Z,23.60
2022-07-26T09:15:08.570Z,23.90
2022-07-26T09:17:58.804Z,23.70
2022-07-26T09:20:49.663Z,23.70
2022-07-26T09:23:41.457Z,23.70
2022-07-26T09:26:29.788Z,23.70
2022-07-26T09:29:17.621Z,23.60
2022-07-26T09:32:17.730Z,23.80
2022-07-26T09:35:45.327Z,24.20
2022-07-26T09:38:24.091Z,24.50
2022-07-26T09:41:22.554Z,24.80
2022-07-26T09:44:22.987Z,24.80
2022-07-26T09:47:10.960Z,25.00
2022-07-26T09:50:13.208Z,25.00
2022-07-26T09:53:03.318Z,25.10
2022-07-26T09:55:58.348Z,25.30
2022-07-26T09:58:46.730Z,25.40
2022-07-26T10:01:34.669Z,25.40
2022-07-26T10:04:23.192Z,25.30
2022-07-26T10:07:12.629Z,25.20
2022-07-26T10:10:04.909Z,25.20
2022-07-26T10:12:54.046Z,25.10
2022-07-26T10:15:46.756Z,25.10
2022-07-26T10:18:45.173Z,25.10
2022-07-26T10:21:34.973Z,25.10
2022-07-26T10:24:28.657Z,25.10
2022-07-26T10:27:37.971Z,25.20
2022-07-26T10:30:34.151Z,25.40
2022-07-26T10:33:26.015Z,25.40
2022-07-26T10:36:24.184Z,25.50
2022-07-26T10:39:16.378Z,25.60
2022-07-26T10:42:08.823Z,25.60
2022-07-26T10:45:21.220Z,25.50
2022-07-26T10:48:14.794Z,25.50
2022-07-26T10:51:06.238Z,25.50
2022-07-26T10:54:02.430Z,25.60
2022-07-26T10:56:50.341Z,25.60
2022-07-26T10:59:57.658Z,25.80
2022-07-26T11:02:48.838Z,26.00
2022-07-26T11:05:36.692Z,25.80
2022-07-26T11:08:31.728Z,25.80
2022-07-26T11:11:30.813Z,25.70
2022-07-26T11:14:20.051Z,25.80
2022-07-26T11:17:09.309Z,25.80
2022-07-26T11:19:57.494Z,26.00
2022-07-26T11:22:46.133Z,26.00
2022-07-26T11:25:33.891Z,26.00
2022-07-26T11:28:21.580Z,26.00
2022-07-26T11:31:10.762Z,26.00
2022-07-26T11:34:03.675Z,26.00
2022-07-26T11:36:54.753Z,26.00
2022-07-26T11:39:42.672Z,26.10
2022-07-26T11:42:30.408Z,26.10
2022-07-26T11:45:19.601Z,26.10
2022-07-26T11:48:08.090Z,26.20
2022-07-26T11:51:12.255Z,26.40
2022-07-26T11:54:02.600Z,26.30
2022-07-26T11:56:55.868Z,26.40
2022-07-26T11:59:46.313Z,26.40
2022-07-26T12:02:34.224Z,26.40
2022-07-26T12:05:23.815Z,26.40
2022-07-26T12:08:12.899Z,26.30
2022-07-26T12:11:01.313Z,26.10
2022-07-26T12:13:55.225Z,26.00
2022-07-26T12:16:45.520Z,25.80
2022-07-26T12:19:33.735Z,25.60
2022-07-26T12:22:22.598Z,25.30
2022-07-26T12:25:11.758Z,25.10
2022-07-26T12:27:59.457Z,25.10
2022-07-26T12:30:47.503Z,25.10
2022-07-26T12:33:49.199Z,25.20
2022-07-26T12:36:37.076Z,25.30
2022-07-26T12:39:25.853Z,25.60
2022-07-26T12:42:34.395Z,25.60
2022-07-26T12:45:26.033Z,25.80
2022-07-26T12:48:14.236Z,25.80
2022-07-26T12:51:01.971Z,25.60
2022-07-26T12:53:49.824Z,25.60
2022-07-26T12:56:37.493Z,25.60
2022-07-26T12:59:26.624Z,25.60
2022-07-26T13:02:14.636Z,25.50
2022-07-26T13:05:04.542Z,25.30
2022-07-26T13:07:53.063Z,25.30
2022-07-26T13:10:42.821Z,25.30
2022-07-26T13:13:31.825Z,25.30
2022-07-26T13:16:21.085Z,25.30
2022-07-26T13:19:09.181Z,25.40
2022-07-26T13:21:58.093Z,25.60
2022-07-26T13:24:46.142Z,25.70
2022-07-26T13:27:36.034Z,25.80
2022-07-26T13:30:25.301Z,25.80
2022-07-26T13:33:14.480Z,25.80
2022-07-26T13:36:02.437Z,25.90
2022-07-26T13:38:50.024Z,26.00
2022-07-26T13:41:38.228Z,25.70
2022-07-26T13:44:26.327Z,25.70
2022-07-26T13:47:14.103Z,25.60
2022-07-26T13:50:04.517Z,25.60
2022-07-26T13:52:55.950Z,25.60
2022-07-26T13:55:43.902Z,25.40
2022-07-26T13:58:32.760Z,25.20
2022-07-26T14:01:20.647Z,25.00
2022-07-26T14:04:29.213Z,24.90
2022-07-26T14:07:18.215Z,24.80
2022-07-26T14:10:06.729Z,24.70
2022-07-26T14:12:54.804Z,24.70
2022-07-26T14:15:42.970Z,25.10
2022-07-26T14:18:31.104Z,25.90
2022-07-26T14:21:19.202Z,26.90
2022-07-26T14:24:09.202Z,28.00
2022-07-26T14:26:59.883Z,28.80
2022-07-26T14:29:49.810Z,29.00
2022-07-26T14:32:37.947Z,29.40
2022-07-26T14:35:25.823Z,29.50
2022-07-26T14:38:17.029Z,29.20
2022-07-26T14:41:12.257Z,28.80
2022-07-26T14:44:01.457Z,28.50
2022-07-26T14:46:49.225Z,28.20
2022-07-26T14:49:37.093Z,28.40
2022-07-26T14:52:24.837Z,29.20
2022-07-26T14:55:13.135Z,30.10
2022-07-26T14:58:02.651Z,30.60
2022-07-26T15:00:53.515Z,30.40
2022-07-26T15:03:41.349Z,30.00
2022-07-26T15:06:29.337Z,30.00
2022-07-26T15:09:17.222Z,30.00
2022-07-26T15:12:05.957Z,30.40
2022-07-26T15:14:55.074Z,30.70
2022-07-26T15:17:43.372Z,31.10
2022-07-26T15:20:31.397Z,31.50
2022-07-26T15:23:19.168Z,32.00
2022-07-26T15:26:07.255Z,32.40
2022-07-26T15:28:54.910Z,32.40
2022-07-26T15:31:44.547Z,31.70
2022-07-26T15:34:32.684Z,30.80
2022-07-26T15:37:20.404Z,30.30
2022-07-26T15:40:09.268Z,29.90
2022-07-26T15:42:57.287Z,29.50
2022-07-26T15:45:45.414Z,29.50
2022-07-26T15:48:34.605Z,29.70
2022-07-26T15:51:24.772Z,30.00
2022-07-26T15:54:15.125Z,29.50
2022-07-26T15:57:03.633Z,29.10
2022-07-26T15:59:51.487Z,28.40
2022-07-26T16:02:40.490Z,28.00
2022-07-26T16:05:30.251Z,28.00
2022-07-26T16:08:18.282Z,28.00
2022-07-26T16:11:06.055Z,28.10
2022-07-26T16:14:01.585Z,28.00
2022-07-26T16:16:49.731Z,28.00
2022-07-26T16:19:37.790Z,28.00
2022-07-26T16:22:27.607Z,28.10
2022-07-26T16:25:16.259Z,28.40
2022-07-26T16:28:04.268Z,28.60
2022-07-26T16:30:52.105Z,28.90
2022-07-26T16:33:46.343Z,28.90
2022-07-26T16:36:34.798Z,28.60
2022-07-26T16:39:24.573Z,28.30
2022-07-26T16:42:13.010Z,28.40
2022-07-26T16:45:01.254Z,29.10
2022-07-26T16:47:48.803Z,30.00
2022-07-26T16:50:36.493Z,31.10
2022-07-26T16:53:24.659Z,31.40
2022-07-26T16:56:13.841Z,31.10
2022-07-26T16:59:01.695Z,31.00
2022-07-26T17:01:49.819Z,31.10
2022-07-26T17:04:38.557Z,30.90
2022-07-26T17:07:27.278Z,30.40
2022-07-26T17:10:14.995Z,29.70
2022-07-26T17:13:04.123Z,29.10
2022-07-26T17:15:52.267Z,28.30
2022-07-26T17:18:39.973Z,27.50
2022-07-26T17:21:27.771Z,26.80
2022-07-26T17:24:16.150Z,26.30
2022-07-26T17:27:04.198Z,25.70
2022-07-26T17:29:53.222Z,25.30
2022-07-26T17:32:41.394Z,24.90
2022-07-26T17:35:29.139Z,24.70
2022-07-26T17:38:17.171Z,24.50
2022-07-26T17:41:05.312Z,24.30
2022-07-26T17:43:54.135Z,24.10
2022-07-26T17:46:44.109Z,24.00
2022-07-26T17:49:32.113Z,23.80
2022-07-26T17:52:20.039Z,23.80
2022-07-26T17:55:08.518Z,23.90
2022-07-26T17:57:56.484Z,23.80
2022-07-26T18:00:44.740Z,23.70
2022-07-26T18:03:34.856Z,23.60
2022-07-26T18:06:22.853Z,23.40
2022-07-26T18:09:11.653Z,23.20
2022-07-26T18:12:00.038Z,23.10
2022-07-26T18:14:47.607Z,22.80
2022-07-26T18:17:35.570Z,22.60
2022-07-26T18:20:24.616Z,22.40
2022-07-26T18:23:12.727Z,22.30
2022-07-26T18:26:00.876Z,22.20
2022-07-26T18:28:49.596Z,22.00
2022-07-26T18:31:37.666Z,21.90
2022-07-26T18:34:25.957Z,21.80
2022-07-26T18:37:15.277Z,21.70
2022-07-26T18:40:03.452Z,21.50
2022-07-26T18:42:51.468Z,21.30
2022-07-26T18:45:39.422Z,21.10
2022-07-26T18:48:27.885Z,20.90
2022-07-26T18:51:16.174Z,20.70
2022-07-26T18:54:06.359Z,20.50
2022-07-26T18:56:54.199Z,20.30
2022-07-26T18:59:42.322Z,20.20
2022-07-26T19:02:30.190Z,20.00
2022-07-26T19:05:18.927Z,19.80
2022-07-26T19:08:07.114Z,19.70
2022-07-26T19:10:56.560Z,20.10
2022-07-26T19:13:44.674Z,20.40
2022-07-26T19:16:32.809Z,20.70
2022-07-26T19:19:20.511Z,20.80
2022-07-26T19:22:08.461Z,20.90
2022-07-26T19:25:02.463Z,20.80
2022-07-26T19:27:51.631Z,20.70
2022-07-26T19:30:40.024Z,20.60
2022-07-26T19:33:28.054Z,20.50
2022-07-26T19:36:24.479Z,20.40
2022-07-26T19:39:13.963Z,20.30
2022-07-26T19:42:01.714Z,20.20
2022-07-26T19:44:50.987Z,20.10
2022-07-26T19:47:39.495Z,20.00
2022-07-26T19:50:27.141Z,19.90
2022-07-26T19:53:14.703Z,19.90
2022-07-26T19:56:02.219Z,19.80
2022-07-26T19:58:52.247Z,19.80
2022-07-26T20:01:41.486Z,19.70
2022-07-26T20:04:29.230Z,19.50
2022-07-26T20:07:19.689Z,19.40
2022-07-26T20:10:09.227Z,19.30
2022-07-26T20:12:58.214Z,19.20
2022-07-26T20:15:47.113Z,19.00
2022-07-26T20:18:36.682Z,18.90
2022-07-26T20:21:24.483Z,18.80
2022-07-26T20:24:12.448Z,18.70
2022-07-26T20:27:00.250Z,18.60
2022-07-26T20:29:48.018Z,18.50
2022-07-26T20:32:36.020Z,18.40
2022-07-26T20:35:25.725Z,18.20
2022-07-26T20:38:13.679Z,18.10
2022-07-26T20:41:03.070Z,17.90
2022-07-26T20:43:53.651Z,17.80
2022-07-26T20:46:44.621Z,17.70
2022-07-26T20:49:32.585Z,17.60
2022-07-26T20:52:22.737Z,17.50
2022-07-26T20:55:13.510Z,17.40
2022-07-26T20:58:01.085Z,17.20
2022-07-26T21:00:49.397Z,17.10
2022-07-26T21:03:37.845Z,17.00
2022-07-26T21:06:25.739Z,16.90
2022-07-26T21:09:18.573Z,17.00
2022-07-26T21:12:06.883Z,17.00
2022-07-26T21:14:54.602Z,16.90
2022-07-26T21:17:43.099Z,16.90
2022-07-26T21:20:31.288Z,16.80
2022-07-26T21:23:19.088Z,16.70
2022-07-26T21:26:10.194Z,16.70
2022-07-26T21:28:57.675Z,16.60
2022-07-26T21:31:45.530Z,16.60
2022-07-26T21:34:34.434Z,16.50
2022-07-26T21:37:22.498Z,16.50
2022-07-26T21:40:11.612Z,16.50
2022-07-26T21:43:01.101Z,16.40
2022-07-26T21:45:49.049Z,16.50
2022-07-26T21:48:37.083Z,16.50
2022-07-26T21:51:24.976Z,16.60
2022-07-26T21:54:12.929Z,16.60
2022-07-26T21:57:01.123Z,16.60
2022-07-26T21:59:50.154Z,16.50
2022-07-26T22:02:37.817Z,16.50
2022-07-26T22:05:39.125Z,16.50
2022-07-26T22:08:27.790Z,16.40
2022-07-26T22:11:16.387Z,16.30
2022-07-26T22:14:04.235Z,16.20
2022-07-26T22:16:53.530Z,16.20
2022-07-26T22:19:41.820Z,16.10
2022-07-26T22:22:29.342Z,16.00
2022-07-26T22:25:17.146Z,16.00
2022-07-26T22:28:06.631Z,16.00
2022-07-26T22:30:54.718Z,15.90
2022-07-26T22:33:43.955Z,15.80
2022-07-26T22:36:31.773Z,15.80
2022-07-26T22:39:19.717Z,15.70
2022-07-26T22:42:15.378Z,15.70
2022-07-26T22:45:03.714Z,15.70
2022-07-26T22:47:58.502Z,15.60
2022-07-26T22:50:47.846Z,15.60
2022-07-26T22:53:35.507Z,15.50
2022-07-26T22:56:23.943Z,15.40
2022-07-26T22:59:12.357Z,15.30
2022-07-26T23:02:01.258Z,15.20
2022-07-26T23:04:49.292Z,15.10
2022-07-26T23:07:40.364Z,15.10
2022-07-26T23:10:28.668Z,15.10
2022-07-26T23:13:17.562Z,15.10
2022-07-26T23:16:05.862Z,15.20
2022-07-26T23:18:54.108Z,15.20
2022-07-26T23:21:42.354Z,15.20
2022-07-26T23:24:32.192Z,15.20
2022-07-26T23:27:20.389Z,15.20
2022-07-26T23:30:09.608Z,15.20
2022-07-26T23:32:57.498Z,15.20
2022-07-26T23:35:45.142Z,15.10
2022-07-26T23:38:33.319Z,15.00
2022-07-26T23:41:23.068Z,14.90
2022-07-26T23:44:11.562Z,14.80
2022-07-26T23:47:00.490Z,14.70
2022-07-26T23:49:48.721Z,14.60
2022-07-26T23:52:37.106Z,14.50
2022-07-26T23:55:24.575Z,14.40
2022-07-26T23:58:13.760Z,14.30
